createdAt,value
2019-03-25T00:01:54.825Z,8.07
2019-03-25T00:04:25.416Z,8.09
2019-03-25T00:06:55.768Z,8.09
2019-03-25T00:09:26.131Z,8.13
2019-03-25T00:11:56.516Z,8.12
2019-03-25T00:14:26.882Z,8.12
2019-03-25T00:16:57.232Z,8.03
2019-03-25T00:19:27.591Z,8.01
2019-03-25T00:21:58.063Z,8.05
2019-03-25T00:24:38.144Z,8.00
2019-03-25T00:27:00.462Z,8.02
2019-03-25T00:29:30.814Z,8.08
2019-03-25T00:32:01.247Z,8.06
2019-03-25T00:34:31.608Z,8.00
2019-03-25T00:37:02.009Z,8.04
2019-03-25T00:39:32.390Z,8.15
2019-03-25T00:42:02.756Z,8.13
2019-03-25T00:44:33.182Z,8.03
2019-03-25T00:47:03.537Z,8.04
2019-03-25T00:49:33.908Z,8.09
2019-03-25T00:52:04.293Z,8.19
2019-03-25T00:54:34.682Z,8.13
2019-03-25T00:57:05.060Z,8.09
2019-03-25T00:59:35.418Z,7.85
2019-03-25T01:02:05.788Z,7.77
2019-03-25T01:04:36.170Z,7.68
2019-03-25T01:07:06.528Z,7.65
2019-03-25T01:09:36.895Z,7.65
2019-03-25T01:12:07.243Z,7.64
2019-03-25T01:14:37.608Z,7.51
2019-03-25T01:17:07.957Z,7.57
2019-03-25T01:19:39.384Z,7.57
2019-03-25T01:22:09.734Z,7.69
2019-03-25T01:24:40.108Z,7.77
2019-03-25T01:27:10.496Z,7.64
2019-03-25T01:29:40.886Z,7.53
2019-03-25T01:32:11.246Z,7.69
2019-03-25T01:34:41.609Z,7.68
2019-03-25T01:37:12.014Z,7.72
2019-03-25T01:39:42.361Z,7.72
2019-03-25T01:42:12.809Z,7.67
2019-03-25T01:44:43.172Z,7.74
2019-03-25T01:47:13.542Z,7.77
2019-03-25T01:49:43.915Z,7.87
2019-03-25T01:52:14.329Z,7.79
2019-03-25T01:54:44.666Z,7.69
2019-03-25T01:57:15.148Z,7.69
2019-03-25T01:59:45.521Z,7.61
2019-03-25T02:02:16.957Z,7.71
2019-03-25T02:04:47.326Z,7.80
2019-03-25T02:07:17.672Z,7.76
2019-03-25T02:09:48.044Z,7.77
2019-03-25T02:12:18.403Z,7.83
2019-03-25T02:14:49.851Z,7.84
2019-03-25T02:17:20.300Z,7.82
2019-03-25T02:19:50.677Z,7.70
2019-03-25T02:22:21.101Z,7.55
2019-03-25T02:24:51.448Z,7.47
2019-03-25T02:27:21.841Z,7.49
2019-03-25T02:29:52.196Z,7.53
2019-03-25T02:32:22.665Z,7.53
2019-03-25T02:34:53.029Z,7.52
2019-03-25T02:37:23.560Z,7.62
2019-03-25T02:39:53.913Z,7.65
2019-03-25T02:42:24.279Z,7.66
2019-03-25T02:44:54.657Z,7.77
2019-03-25T02:47:25.063Z,7.84
2019-03-25T02:49:55.419Z,7.78
2019-03-25T02:52:25.797Z,7.66
2019-03-25T02:54:56.167Z,7.47
2019-03-25T02:57:26.546Z,7.36
2019-03-25T02:59:56.912Z,7.17
2019-03-25T03:02:27.263Z,7.15
2019-03-25T03:04:57.638Z,7.14
2019-03-25T03:07:28.037Z,7.08
2019-03-25T03:09:58.422Z,7.10
2019-03-25T03:12:28.795Z,6.94
2019-03-25T03:14:59.164Z,6.94
2019-03-25T03:17:30.325Z,7.01
2019-03-25T03:20:00.674Z,6.96
2019-03-25T03:22:31.037Z,7.10
2019-03-25T03:25:01.387Z,7.13
2019-03-25T03:27:31.735Z,6.72
2019-03-25T03:30:02.298Z,6.87
2019-03-25T03:32:33.725Z,7.09
2019-03-25T03:35:05.919Z,7.09
2019-03-25T03:37:36.289Z,7.19
2019-03-25T03:40:06.660Z,7.31
2019-03-25T03:42:37.034Z,7.25
2019-03-25T03:45:07.595Z,7.30
2019-03-25T03:47:37.992Z,7.20
2019-03-25T03:50:09.502Z,7.23
2019-03-25T03:52:39.925Z,7.23
2019-03-25T03:55:13.057Z,7.18
2019-03-25T03:57:43.414Z,7.17
2019-03-25T04:00:25.718Z,7.16
2019-03-25T04:02:56.102Z,7.19
2019-03-25T04:05:26.469Z,7.08
2019-03-25T04:07:56.813Z,6.96
2019-03-25T04:10:27.578Z,7.06
2019-03-25T04:12:57.976Z,6.97
2019-03-25T04:15:30.096Z,6.98
2019-03-25T04:18:00.449Z,6.93
2019-03-25T04:20:30.806Z,6.88
2019-03-25T04:23:01.188Z,6.87
2019-03-25T04:25:31.576Z,6.88
2019-03-25T04:28:01.944Z,6.83
2019-03-25T04:30:32.292Z,6.86
2019-03-25T04:33:02.668Z,6.94
2019-03-25T04:35:33.170Z,6.94
2019-03-25T04:38:04.352Z,7.00
2019-03-25T04:40:34.700Z,7.13
2019-03-25T04:43:05.075Z,7.14
2019-03-25T04:45:35.466Z,7.06
2019-03-25T04:48:06.922Z,7.31
2019-03-25T04:50:37.343Z,7.30
2019-03-25T04:53:07.693Z,7.35
2019-03-25T04:55:38.046Z,6.92
2019-03-25T04:58:08.418Z,6.65
2019-03-25T05:00:38.772Z,6.82
2019-03-25T05:03:09.143Z,6.66
2019-03-25T05:05:39.523Z,6.64
2019-03-25T05:08:09.894Z,6.13
2019-03-25T05:10:40.249Z,6.48
2019-03-25T05:13:10.609Z,6.81
2019-03-25T05:15:40.970Z,7.17
2019-03-25T05:18:11.324Z,7.45
2019-03-25T05:20:41.694Z,7.53
2019-03-25T05:23:12.071Z,7.66
2019-03-25T05:25:42.448Z,7.80
2019-03-25T05:28:12.811Z,7.84
2019-03-25T05:30:43.173Z,7.98
2019-03-25T05:33:13.549Z,8.08
2019-03-25T05:35:43.896Z,8.17
2019-03-25T05:38:14.248Z,8.16
2019-03-25T05:40:44.603Z,8.15
2019-03-25T05:43:14.974Z,8.15
2019-03-25T05:45:45.346Z,8.34
2019-03-25T05:48:15.897Z,8.30
2019-03-25T05:50:46.260Z,8.40
2019-03-25T05:53:16.771Z,8.34
2019-03-25T05:55:47.112Z,8.29
2019-03-25T05:58:17.541Z,8.39
2019-03-25T06:00:47.934Z,8.15
2019-03-25T06:03:18.580Z,8.09
2019-03-25T06:05:48.949Z,7.95
2019-03-25T06:08:22.389Z,7.88
2019-03-25T06:10:53.128Z,8.33
2019-03-25T06:13:23.507Z,8.59
2019-03-25T06:15:53.905Z,8.66
2019-03-25T06:18:24.271Z,8.61
2019-03-25T06:20:55.282Z,8.75
2019-03-25T06:23:26.464Z,8.65
2019-03-25T06:25:57.609Z,8.61
2019-03-25T06:28:28.056Z,8.68
2019-03-25T06:30:58.616Z,8.68
2019-03-25T06:33:28.989Z,8.33
2019-03-25T06:35:59.700Z,7.79
2019-03-25T06:38:33.384Z,7.43
2019-03-25T06:41:06.413Z,7.74
2019-03-25T06:43:38.435Z,7.45
2019-03-25T06:46:08.827Z,7.49
2019-03-25T06:48:39.356Z,7.59
2019-03-25T06:51:10.777Z,7.93
2019-03-25T06:53:41.277Z,8.01
2019-03-25T06:56:11.628Z,8.19
2019-03-25T06:58:42.010Z,8.42
2019-03-25T07:01:12.362Z,8.39
2019-03-25T07:03:42.747Z,8.59
2019-03-25T07:06:13.157Z,8.40
2019-03-25T07:08:43.545Z,8.62
2019-03-25T07:11:13.950Z,8.70
2019-03-25T07:13:44.295Z,8.89
2019-03-25T07:16:15.303Z,9.09
2019-03-25T07:18:45.704Z,9.08
2019-03-25T07:21:16.839Z,8.95
2019-03-25T07:23:47.450Z,8.71
2019-03-25T07:26:17.811Z,8.84
2019-03-25T07:28:48.233Z,9.07
2019-03-25T07:31:18.611Z,8.87
2019-03-25T07:33:48.974Z,8.97
2019-03-25T07:36:20.488Z,8.74
2019-03-25T07:38:51.108Z,8.69
2019-03-25T07:41:21.462Z,8.84
2019-03-25T07:43:51.892Z,8.99
2019-03-25T07:46:22.187Z,8.97
2019-03-25T07:48:52.620Z,9.12
2019-03-25T07:51:22.971Z,9.46
2019-03-25T07:53:53.346Z,9.80
2019-03-25T07:56:23.790Z,10.09
2019-03-25T07:58:54.161Z,10.25
2019-03-25T08:01:24.566Z,10.39
2019-03-25T08:03:55.029Z,10.31
2019-03-25T08:06:25.403Z,10.75
2019-03-25T08:09:03.664Z,10.88
2019-03-25T08:11:28.503Z,11.34
2019-03-25T08:13:58.947Z,11.05
2019-03-25T08:16:29.309Z,10.62
2019-03-25T08:18:59.684Z,10.43
2019-03-25T08:21:30.128Z,10.30
2019-03-25T08:24:00.486Z,10.26
2019-03-25T08:26:30.906Z,10.28
2019-03-25T08:29:01.263Z,9.97
2019-03-25T08:31:31.693Z,10.04
2019-03-25T08:34:02.678Z,10.11
2019-03-25T08:36:33.394Z,10.41
2019-03-25T08:39:05.627Z,10.83
2019-03-25T08:41:36.742Z,11.24
2019-03-25T08:44:07.824Z,11.54
2019-03-25T08:46:38.956Z,11.63
2019-03-25T08:49:11.939Z,11.34
2019-03-25T08:51:42.079Z,11.19
2019-03-25T08:54:12.435Z,11.09
2019-03-25T08:56:42.860Z,11.28
2019-03-25T08:59:13.269Z,11.66
2019-03-25T09:01:43.718Z,11.63
2019-03-25T09:04:14.090Z,11.54
2019-03-25T09:06:44.469Z,11.44
2019-03-25T09:09:14.851Z,11.34
2019-03-25T09:11:45.260Z,11.21
2019-03-25T09:14:15.636Z,11.19
2019-03-25T09:16:46.007Z,11.25
2019-03-25T09:19:16.410Z,11.64
2019-03-25T09:21:46.765Z,12.41
2019-03-25T09:24:17.130Z,12.36
2019-03-25T09:26:47.522Z,12.46
2019-03-25T09:29:20.231Z,12.73
2019-03-25T09:31:51.363Z,13.24
2019-03-25T09:34:21.710Z,13.32
2019-03-25T09:36:52.099Z,13.43
2019-03-25T09:39:22.492Z,13.49
2019-03-25T09:41:52.900Z,13.71
2019-03-25T09:44:23.258Z,13.75
2019-03-25T09:46:53.637Z,13.92
2019-03-25T09:49:24.215Z,14.30
2019-03-25T09:51:54.569Z,14.44
2019-03-25T09:54:25.039Z,14.34
2019-03-25T09:56:55.832Z,13.91
2019-03-25T09:59:26.222Z,14.11
2019-03-25T10:01:57.069Z,14.11
2019-03-25T10:04:27.544Z,14.05
2019-03-25T10:06:57.943Z,13.83
2019-03-25T10:09:28.320Z,13.51
2019-03-25T10:11:58.709Z,13.67
2019-03-25T10:14:29.098Z,13.20
2019-03-25T10:16:59.870Z,13.59
2019-03-25T10:19:30.328Z,13.48
2019-03-25T10:22:00.816Z,12.91
2019-03-25T10:24:31.177Z,13.19
2019-03-25T10:27:01.534Z,12.79
2019-03-25T10:29:32.113Z,12.20
2019-03-25T10:32:02.593Z,11.88
2019-03-25T10:34:32.961Z,11.72
2019-03-25T10:37:03.320Z,11.62
2019-03-25T10:39:33.689Z,11.34
2019-03-25T10:42:04.084Z,11.44
2019-03-25T10:44:34.464Z,11.27
2019-03-25T10:47:04.837Z,11.41
2019-03-25T10:49:35.225Z,11.33
2019-03-25T10:52:05.600Z,11.28
2019-03-25T10:54:36.123Z,10.76
2019-03-25T10:57:06.568Z,10.64
2019-03-25T10:59:37.940Z,10.19
2019-03-25T11:02:08.323Z,10.11
2019-03-25T11:04:38.673Z,9.98
2019-03-25T11:07:09.118Z,9.89
2019-03-25T11:09:39.578Z,10.22
2019-03-25T11:12:10.374Z,9.99
2019-03-25T11:14:40.748Z,10.03
2019-03-25T11:17:11.119Z,9.90
2019-03-25T11:19:41.495Z,9.94
2019-03-25T11:22:11.834Z,9.45
2019-03-25T11:24:42.241Z,9.13
2019-03-25T11:27:12.624Z,8.99
2019-03-25T11:29:43.204Z,8.47
2019-03-25T11:32:13.562Z,8.19
2019-03-25T11:34:43.929Z,8.30
2019-03-25T11:37:14.295Z,8.34
2019-03-25T11:39:44.844Z,8.21
2019-03-25T11:42:15.212Z,8.11
2019-03-25T11:44:45.549Z,8.14
2019-03-25T11:47:15.902Z,8.36
2019-03-25T11:49:46.408Z,8.00
2019-03-25T11:52:16.887Z,8.03
2019-03-25T11:54:47.301Z,7.70
2019-03-25T11:57:17.650Z,7.45
2019-03-25T11:59:48.002Z,7.23
2019-03-25T12:02:18.388Z,6.92
2019-03-25T12:04:48.751Z,7.00
2019-03-25T12:07:20.204Z,6.97
2019-03-25T12:09:50.552Z,6.80
2019-03-25T12:12:20.881Z,6.45
2019-03-25T12:14:51.223Z,6.53
2019-03-25T12:17:21.658Z,6.61
2019-03-25T12:19:52.003Z,6.88
2019-03-25T12:22:22.340Z,7.23
2019-03-25T12:24:52.678Z,7.39
2019-03-25T12:27:23.082Z,7.32
2019-03-25T12:29:53.481Z,7.52
2019-03-25T12:32:23.885Z,7.27
2019-03-25T12:34:54.253Z,7.33
2019-03-25T12:37:24.606Z,7.13
2019-03-25T12:39:54.955Z,7.20
2019-03-25T12:42:25.301Z,7.07
2019-03-25T12:44:55.648Z,7.14
2019-03-25T12:47:26.056Z,7.28
2019-03-25T12:49:56.405Z,7.02
2019-03-25T12:52:26.799Z,7.13
2019-03-25T12:54:57.156Z,7.21
2019-03-25T12:57:28.089Z,7.13
2019-03-25T12:59:58.458Z,7.17
2019-03-25T13:02:28.835Z,7.41
2019-03-25T13:04:59.199Z,7.37
2019-03-25T13:07:30.500Z,7.05
2019-03-25T13:10:00.871Z,6.94
2019-03-25T13:12:34.270Z,6.96
2019-03-25T13:15:08.676Z,6.98
2019-03-25T13:17:39.041Z,7.03
2019-03-25T13:20:09.461Z,7.13
2019-03-25T13:22:40.018Z,7.05
2019-03-25T13:25:10.367Z,6.67
2019-03-25T13:27:40.717Z,6.79
2019-03-25T13:30:15.754Z,6.83
2019-03-25T13:32:44.816Z,6.76
2019-03-25T13:35:15.212Z,6.69
2019-03-25T13:37:45.544Z,6.55
2019-03-25T13:40:15.895Z,6.98
2019-03-25T13:42:46.276Z,6.98
2019-03-25T13:45:16.638Z,7.16
2019-03-25T13:47:46.996Z,7.11
2019-03-25T13:50:17.352Z,7.21
2019-03-25T13:52:47.724Z,7.20
2019-03-25T13:55:18.075Z,7.30
2019-03-25T13:57:48.456Z,7.60
2019-03-25T14:00:22.074Z,7.40
2019-03-25T14:02:52.479Z,7.62
2019-03-25T14:05:23.147Z,7.73
2019-03-25T14:07:53.508Z,7.47
2019-03-25T14:10:23.870Z,7.46
2019-03-25T14:12:54.215Z,7.03
2019-03-25T14:15:24.585Z,6.80
2019-03-25T14:17:54.960Z,7.19
2019-03-25T14:20:28.183Z,7.48
2019-03-25T14:22:58.534Z,7.65
2019-03-25T14:25:28.882Z,7.25
2019-03-25T14:27:59.335Z,7.62
2019-03-25T14:30:29.995Z,7.58
2019-03-25T14:33:01.386Z,7.65
2019-03-25T14:35:31.762Z,7.74
2019-03-25T14:38:04.394Z,8.03
2019-03-25T14:40:34.882Z,7.82
2019-03-25T14:43:05.223Z,7.94
2019-03-25T14:45:35.618Z,7.90
2019-03-25T14:48:05.977Z,8.04
2019-03-25T14:50:38.039Z,8.06
2019-03-25T14:53:08.382Z,8.32
2019-03-25T14:55:38.743Z,8.56
2019-03-25T14:58:09.140Z,8.35
2019-03-25T15:00:39.498Z,8.44
2019-03-25T15:03:11.291Z,7.00
2019-03-25T15:05:42.668Z,6.21
2019-03-25T15:08:13.068Z,5.97
2019-03-25T15:10:53.180Z,5.68
2019-03-25T15:13:15.712Z,5.21
2019-03-25T15:15:46.198Z,5.51
2019-03-25T15:18:16.602Z,5.83
2019-03-25T15:20:48.026Z,6.21
2019-03-25T15:23:18.518Z,6.15
2019-03-25T15:25:48.879Z,6.29
2019-03-25T15:28:20.226Z,6.27
2019-03-25T15:30:50.620Z,6.61
2019-03-25T15:33:22.429Z,6.74
2019-03-25T15:35:53.751Z,7.13
2019-03-25T15:38:25.517Z,7.27
2019-03-25T15:40:56.093Z,7.42
2019-03-25T15:43:26.463Z,7.45
2019-03-25T15:45:56.818Z,7.15
2019-03-25T15:48:27.943Z,7.19
2019-03-25T15:50:58.307Z,7.31
2019-03-25T15:53:28.908Z,7.59
2019-03-25T15:55:59.306Z,7.29
2019-03-25T15:58:29.909Z,7.16
2019-03-25T16:01:01.537Z,6.95
2019-03-25T16:03:31.900Z,6.97
2019-03-25T16:06:02.255Z,7.09
2019-03-25T16:08:32.884Z,7.00
2019-03-25T16:11:03.317Z,7.10
2019-03-25T16:13:33.687Z,7.06
2019-03-25T16:16:04.077Z,7.10
2019-03-25T16:18:39.415Z,6.92
2019-03-25T16:21:10.156Z,6.84
2019-03-25T16:23:40.491Z,7.24
2019-03-25T16:26:10.848Z,7.27
2019-03-25T16:28:41.205Z,7.05
2019-03-25T16:31:12.647Z,7.03
2019-03-25T16:33:43.043Z,7.18
2019-03-25T16:36:13.521Z,7.18
2019-03-25T16:38:44.196Z,7.26
2019-03-25T16:41:16.890Z,6.87
2019-03-25T16:43:48.256Z,6.59
2019-03-25T16:46:18.794Z,6.84
2019-03-25T16:48:50.251Z,6.85
2019-03-25T16:51:20.767Z,6.79
2019-03-25T16:54:09.315Z,6.76
2019-03-25T16:56:39.696Z,6.98
2019-03-25T16:59:10.069Z,6.92
2019-03-25T17:01:40.784Z,6.75
2019-03-25T17:04:11.179Z,6.88
2019-03-25T17:06:42.998Z,6.94
2019-03-25T17:09:13.385Z,6.98
2019-03-25T17:11:44.837Z,6.93
2019-03-25T17:14:15.234Z,6.87
2019-03-25T17:16:46.357Z,6.88
2019-03-25T17:19:16.712Z,7.04
2019-03-25T17:21:57.712Z,6.94
2019-03-25T17:24:19.566Z,6.92
2019-03-25T17:26:50.193Z,6.89
2019-03-25T17:29:22.399Z,6.91
2019-03-25T17:31:53.194Z,6.99
2019-03-25T17:34:23.883Z,6.99
2019-03-25T17:36:54.381Z,6.65
2019-03-25T17:39:26.916Z,6.87
2019-03-25T17:41:57.482Z,6.81
2019-03-25T17:44:28.345Z,6.90
2019-03-25T17:46:58.730Z,6.71
2019-03-25T17:49:29.258Z,6.68
2019-03-25T17:52:01.182Z,6.60
2019-03-25T17:54:34.430Z,6.62
2019-03-25T17:57:04.851Z,6.36
2019-03-25T17:59:35.702Z,6.42
2019-03-25T18:02:06.104Z,6.26
2019-03-25T18:04:36.471Z,6.34
2019-03-25T18:07:06.967Z,6.17
2019-03-25T18:09:37.346Z,6.21
2019-03-25T18:12:07.794Z,6.63
2019-03-25T18:14:41.406Z,6.48
2019-03-25T18:17:13.228Z,6.74
2019-03-25T18:19:43.604Z,6.98
2019-03-25T18:22:14.296Z,7.01
2019-03-25T18:24:44.693Z,6.73
2019-03-25T18:27:15.017Z,6.72
2019-03-25T18:29:45.436Z,6.65
2019-03-25T18:32:15.997Z,6.61
2019-03-25T18:34:46.381Z,6.92
2019-03-25T18:37:16.751Z,6.77
2019-03-25T18:39:48.595Z,6.58
2019-03-25T18:42:21.746Z,6.74
2019-03-25T18:44:52.259Z,6.92
2019-03-25T18:47:22.715Z,6.69
2019-03-25T18:49:54.191Z,6.73
2019-03-25T18:52:25.641Z,6.63
2019-03-25T18:54:56.057Z,6.50
2019-03-25T18:57:26.405Z,6.35
2019-03-25T18:59:57.761Z,6.51
2019-03-25T19:02:28.754Z,6.43
2019-03-25T19:05:00.436Z,6.33
2019-03-25T19:07:32.915Z,6.53
2019-03-25T19:10:03.895Z,6.75
2019-03-25T19:12:34.291Z,6.82
2019-03-25T19:15:07.714Z,6.87
2019-03-25T19:17:38.560Z,6.82
2019-03-25T19:20:09.072Z,6.59
2019-03-25T19:22:39.892Z,6.72
2019-03-25T19:25:13.374Z,6.14
2019-03-25T19:27:43.761Z,6.14
2019-03-25T19:30:16.012Z,6.14
2019-03-25T19:32:46.409Z,6.20
2019-03-25T19:35:18.464Z,6.42
2019-03-25T19:37:48.822Z,6.09
2019-03-25T19:40:19.253Z,6.13
2019-03-25T19:42:51.273Z,6.11
2019-03-25T19:45:22.168Z,6.05
2019-03-25T19:47:56.075Z,6.04
2019-03-25T19:50:27.151Z,6.34
2019-03-25T19:52:58.918Z,6.61
2019-03-25T19:55:29.287Z,6.70
2019-03-25T19:58:02.466Z,6.69
2019-03-25T20:00:38.769Z,6.65
2019-03-25T20:03:09.252Z,6.77
2019-03-25T20:05:40.032Z,6.61
2019-03-25T20:08:10.375Z,6.48
2019-03-25T20:10:40.767Z,6.24
2019-03-25T20:13:12.157Z,6.30
2019-03-25T20:15:46.610Z,6.11
2019-03-25T20:18:16.137Z,6.04
2019-03-25T20:20:47.597Z,6.26
2019-03-25T20:23:19.004Z,5.96
2019-03-25T20:25:50.966Z,5.97
2019-03-25T20:28:22.141Z,5.99
2019-03-25T20:30:52.796Z,5.85
2019-03-25T20:33:23.566Z,5.86
2019-03-25T20:35:54.304Z,5.69
2019-03-25T20:38:25.457Z,5.56
2019-03-25T20:40:58.110Z,5.59
2019-03-25T20:43:30.239Z,5.96
2019-03-25T20:46:01.772Z,5.67
2019-03-25T20:48:33.601Z,5.99
2019-03-25T20:51:04.021Z,5.76
2019-03-25T20:53:34.571Z,6.02
2019-03-25T20:56:07.344Z,5.93
2019-03-25T20:58:37.884Z,5.67
2019-03-25T21:01:08.530Z,6.18
2019-03-25T21:03:40.570Z,6.27
2019-03-25T21:06:11.259Z,6.06
2019-03-25T21:08:42.068Z,5.63
2019-03-25T21:11:13.144Z,5.69
2019-03-25T21:13:43.963Z,5.55
2019-03-25T21:16:14.761Z,5.89
2019-03-25T21:18:45.144Z,6.01
2019-03-25T21:21:15.586Z,6.20
2019-03-25T21:23:45.939Z,6.07
2019-03-25T21:26:16.722Z,6.19
2019-03-25T21:28:48.827Z,5.89
2019-03-25T21:31:19.948Z,6.11
2019-03-25T21:33:51.982Z,5.93
2019-03-25T21:36:22.331Z,5.81
2019-03-25T21:38:53.212Z,5.79
2019-03-25T21:41:23.776Z,5.99
2019-03-25T21:43:54.154Z,5.65
2019-03-25T21:46:24.632Z,6.09
2019-03-25T21:48:55.014Z,5.80
2019-03-25T21:51:27.038Z,5.87
2019-03-25T21:53:59.164Z,5.85
2019-03-25T21:56:29.895Z,5.80
2019-03-25T21:59:00.527Z,6.08
2019-03-25T22:01:31.016Z,5.95
2019-03-25T22:04:01.372Z,6.09
2019-03-25T22:06:31.723Z,6.26
2019-03-25T22:09:02.087Z,6.30
2019-03-25T22:11:32.670Z,6.60
2019-03-25T22:14:04.156Z,6.56
2019-03-25T22:16:34.531Z,6.37
2019-03-25T22:19:04.883Z,6.14
2019-03-25T22:21:35.455Z,6.00
2019-03-25T22:24:05.837Z,6.19
2019-03-25T22:26:37.279Z,6.45
2019-03-25T22:29:07.731Z,6.42
2019-03-25T22:31:38.066Z,6.59
2019-03-25T22:34:08.403Z,6.47
2019-03-25T22:36:38.838Z,6.65
2019-03-25T22:39:09.186Z,6.67
2019-03-25T22:41:39.553Z,6.65
2019-03-25T22:44:10.992Z,6.48
2019-03-25T22:46:41.347Z,6.58
2019-03-25T22:49:11.708Z,6.71
2019-03-25T22:51:42.959Z,6.80
2019-03-25T22:54:13.330Z,6.79
2019-03-25T22:56:44.764Z,6.71
2019-03-25T22:59:15.153Z,6.76
2019-03-25T23:01:45.814Z,6.71
2019-03-25T23:04:16.171Z,6.63
2019-03-25T23:06:46.534Z,6.52
2019-03-25T23:09:16.886Z,6.61
2019-03-25T23:11:47.246Z,6.58
2019-03-25T23:14:17.672Z,6.53
2019-03-25T23:16:48.041Z,6.32
2019-03-25T23:19:18.391Z,6.54
2019-03-25T23:21:48.752Z,6.61
2019-03-25T23:24:19.112Z,6.26
2019-03-25T23:26:49.538Z,6.21
2019-03-25T23:29:19.873Z,6.13
2019-03-25T23:31:50.228Z,6.19
2019-03-25T23:34:20.571Z,5.87
2019-03-25T23:36:52.348Z,5.61
2019-03-25T23:39:25.109Z,5.63
2019-03-25T23:41:54.760Z,5.56
2019-03-25T23:44:25.110Z,5.17
2019-03-25T23:46:55.455Z,5.42
2019-03-25T23:49:25.798Z,5.37
2019-03-25T23:51:56.163Z,5.41
2019-03-25T23:54:26.537Z,5.67
2019-03-25T23:56:56.913Z,5.83
2019-03-25T23:59:27.272Z,5.71
